Time;durP1;ratioP1;P1;durP2;ratioP2;P2;SDS_P1;SDS_P2;PMS_P1;PMS_P2;Temp;Humidity;BMP_temperature;BMP_pressure;BME280_temperature;BME280_humidity;BME280_pressure;Samples;Min_cycle;Max_cycle;Signal;HPM_P1;HPM_P2
2022/03/22 00:02:30;;;;;;;;;;;;;;;0.33;100.00;99984.50;10368529;28;19925;-76
2022/03/22 00:07:32;;;;;;;;;;;;;;;0.19;100.00;99975.88;10389095;28;19925;-77
2022/03/22 00:12:36;;;;;;;;;;;;;;;0.18;100.00;99975.06;10370642;28;20024;-77
2022/03/22 00:17:38;;;;;;;;;;;;;;;0.14;100.00;99973.84;10378148;28;19944;-76
2022/03/22 00:22:38;;;;;;;;;;;;;;;-0.03;100.00;99981.47;10377123;28;19933;-76
2022/03/22 00:27:57;;;;;;;;;;;;;;;-0.11;100.00;99988.81;10391710;28;19925;-76
2022/03/22 00:32:59;;;;;;;;;;;;;;;-0.21;100.00;99985.81;10371545;28;19929;-76
2022/03/22 00:37:59;;;;;;;;;;;;;;;-0.47;100.00;99989.38;10412736;28;19936;-75
2022/03/22 00:43:00;;;;;;;;;;;;;;;-0.37;100.00;100003.75;10398163;28;19949;-76
2022/03/22 00:48:01;;;;;;;;;;;;;;;-0.52;100.00;99992.66;10424286;28;19933;-76
2022/03/22 00:53:04;;;;;;;;;;;;;;;-0.52;100.00;99992.66;10401625;28;20012;-76
2022/03/22 00:58:05;;;;;;;;;;;;;;;-0.62;100.00;99995.72;10376304;28;19945;-75
2022/03/22 01:03:07;;;;;;;;;;;;;;;-0.71;100.00;99993.53;10386481;28;19936;-76
2022/03/22 01:08:09;;;;;;;;;;;;;;;-0.64;100.00;99999.56;10401053;28;19929;-77
2022/03/22 01:13:13;;;;;;;;;;;;;;;-0.76;100.00;100004.69;10363615;28;19956;-76
2022/03/22 01:18:16;;;;;;;;;;;;;;;-0.73;100.00;100000.81;10408050;28;19929;-77
2022/03/22 01:23:19;;;;;;;;;;;;;;;-0.37;100.00;99997.66;10381300;28;19960;-78
2022/03/22 01:28:19;;;;;;;;;;;;;;;-0.41;100.00;100002.56;10421192;28;19932;-76
2022/03/22 01:33:20;;;;;;;;;;;;;;;-0.54;100.00;99999.97;10415813;28;19936;-76
2022/03/22 01:38:22;;;;;;;;;;;;;;;-0.66;100.00;99993.72;10404494;28;19929;-77
2022/03/22 01:43:22;;;;;;;;;;;;;;;-0.55;100.00;99995.69;10391701;28;19929;-77
2022/03/22 01:48:23;;;;;;;;;;;;;;;-0.56;100.00;99988.81;10426212;28;19933;-77
2022/03/22 01:53:23;;;;;;;;;;;;;;;-0.63;100.00;99982.75;10396730;28;19933;-76
2022/03/22 01:58:25;;;;;;;;;;;;;;;-0.75;100.00;99984.41;10415404;28;20034;-76
2022/03/22 02:08:44;;;;;;;;;;;;;;;-1.13;100.00;99974.53;10414921;28;19933;-76
2022/03/22 02:13:45;;;;;;;;;;;;;;;-1.25;100.00;99974.38;10421207;28;19992;-76
2022/03/22 02:18:45;;;;;;;;;;;;;;;-1.37;100.00;99981.28;10398167;28;19933;-75
2022/03/22 02:23:51;;;;;;;;;;;;;;;-1.39;100.00;99979.84;10401904;28;19921;-75
2022/03/22 02:28:53;;;;;;;;;;;;;;;-1.46;100.00;99972.75;10427832;28;19925;-76
2022/03/22 02:33:53;;;;;;;;;;;;;;;-1.42;100.00;99975.78;10396078;28;19936;-77
2022/03/22 02:38:54;;;;;;;;;;;;;;;-1.59;100.00;99970.13;10380962;28;19933;-76
2022/03/22 02:43:54;;;;;;;;;;;;;;;-1.66;100.00;99968.47;10396726;28;19934;-76
2022/03/22 02:48:55;;;;;;;;;;;;;;;-1.58;100.00;99960.38;10397608;28;20288;-77
2022/03/22 02:53:56;;;;;;;;;;;;;;;-1.63;100.00;99965.47;10384995;28;20028;-75
2022/03/22 02:58:59;;;;;;;;;;;;;;;-1.74;100.00;99972.97;10420431;28;19920;-76
2022/03/22 03:04:02;;;;;;;;;;;;;;;-1.79;100.00;99969.28;10429229;28;19925;-78
2022/03/22 03:09:03;;;;;;;;;;;;;;;-1.81;100.00;99963.44;10430349;28;19960;-77
2022/03/22 03:19:24;;;;;;;;;;;;;;;-1.72;100.00;99968.28;10452939;28;19921;-79
2022/03/22 03:24:24;;;;;;;;;;;;;;;-1.69;100.00;99974.97;10412605;28;19929;-79
2022/03/22 03:29:25;;;;;;;;;;;;;;;-1.92;100.00;99969.25;10410778;28;19933;-78
2022/03/22 03:34:25;;;;;;;;;;;;;;;-1.82;100.00;99980.22;10381817;28;19932;-78
2022/03/22 03:39:26;;;;;;;;;;;;;;;-1.89;100.00;99980.22;10376917;28;19979;-79
2022/03/22 03:49:48;;;;;;;;;;;;;;;-2.00;100.00;99986.06;10392102;28;19929;-78
2022/03/22 03:54:49;;;;;;;;;;;;;;;-2.11;100.00;99979.53;10378319;28;20479;-78
2022/03/22 03:59:52;;;;;;;;;;;;;;;-2.08;100.00;99983.63;10380492;28;19936;-77
2022/03/22 04:04:52;;;;;;;;;;;;;;;-2.25;100.00;99987.59;10408010;28;19948;-78
2022/03/22 04:09:55;;;;;;;;;;;;;;;-2.16;100.00;99996.94;10378987;28;20079;-77
2022/03/22 04:14:56;;;;;;;;;;;;;;;-2.26;100.00;99997.31;10355199;28;20431;-77
2022/03/22 04:19:57;;;;;;;;;;;;;;;-2.17;100.00;99998.75;10399829;28;19929;-79
2022/03/22 04:25:00;;;;;;;;;;;;;;;-2.28;100.00;100003.78;10418293;28;19933;-77
2022/03/22 04:35:27;;;;;;;;;;;;;;;-2.43;100.00;100006.53;10386663;28;20368;-76
2022/03/22 04:40:28;;;;;;;;;;;;;;;-2.48;100.00;100014.19;10385079;28;19929;-76
2022/03/22 04:45:28;;;;;;;;;;;;;;;-2.57;100.00;100011.72;10377859;28;19921;-77
2022/03/22 04:50:28;;;;;;;;;;;;;;;-2.55;100.00;100016.00;10372374;28;19929;-76
2022/03/22 05:00:50;;;;;;;;;;;;;;;-2.52;100.00;100019.03;10387963;28;19936;-77
2022/03/22 05:11:10;;;;;;;;;;;;;;;-2.67;100.00;100026.22;10382785;28;19930;-76
2022/03/22 05:16:11;;;;;;;;;;;;;;;-2.68;100.00;100022.78;10404318;28;19997;-77
2022/03/22 05:21:11;;;;;;;;;;;;;;;-2.71;100.00;100014.50;10415247;28;20383;-75
2022/03/22 05:26:13;;;;;;;;;;;;;;;-2.61;100.00;100028.09;10423121;28;19928;-77
2022/03/22 05:31:17;;;;;;;;;;;;;;;-2.64;100.00;100025.88;10398561;28;20031;-76
2022/03/22 05:36:17;;;;;;;;;;;;;;;-2.58;100.00;100028.50;10389447;28;19976;-77
2022/03/22 05:41:18;;;;;;;;;;;;;;;-2.44;100.00;100026.78;10399094;28;20393;-76
2022/03/22 05:46:18;;;;;;;;;;;;;;;-2.34;100.00;100023.78;10433016;28;19933;-77
2022/03/22 05:51:19;;;;;;;;;;;;;;;-2.18;100.00;100020.81;10387800;28;20003;-77
2022/03/22 05:56:19;;;;;;;;;;;;;;;-2.03;100.00;100026.72;10381219;28;19925;-77
2022/03/22 06:01:21;;;;;;;;;;;;;;;-1.82;100.00;100025.78;10414780;28;19930;-77
2022/03/22 06:06:21;;;;;;;;;;;;;;;-1.59;100.00;100024.59;10386859;28;20559;-76
2022/03/22 06:11:22;;;;;;;;;;;;;;;-1.16;100.00;100017.94;10384410;28;19933;-76
2022/03/22 06:16:23;;;;;;;;;;;;;;;-0.77;100.00;100021.53;10378998;28;20389;-76
2022/03/22 06:21:24;;;;;;;;;;;;;;;-0.32;100.00;100027.69;10392687;28;20233;-75
2022/03/22 06:26:24;;;;;;;;;;;;;;;0.13;100.00;100017.13;10396610;28;19956;-77
2022/03/22 06:31:25;;;;;;;;;;;;;;;0.31;100.00;100024.31;10372140;28;20277;-76
2022/03/22 06:36:25;;;;;;;;;;;;;;;0.65;100.00;100036.28;10400105;28;19925;-78
2022/03/22 06:41:25;;;;;;;;;;;;;;;0.89;100.00;100032.03;10385444;28;20453;-76
2022/03/22 06:46:27;;;;;;;;;;;;;;;1.02;100.00;100039.84;10394590;28;19929;-75
2022/03/22 06:51:27;;;;;;;;;;;;;;;1.34;100.00;100037.09;10384115;28;20027;-75
2022/03/22 06:56:27;;;;;;;;;;;;;;;2.25;100.00;100030.91;10359744;28;19955;-77
2022/03/22 07:01:28;;;;;;;;;;;;;;;3.12;100.00;100033.84;10381614;28;20011;-77
2022/03/22 07:06:29;;;;;;;;;;;;;;;2.77;100.00;100034.63;10380651;28;20276;-77
2022/03/22 07:16:49;;;;;;;;;;;;;;;3.75;100.00;100035.75;10376662;28;20459;-76
2022/03/22 07:21:49;;;;;;;;;;;;;;;4.15;95.13;100034.91;10380578;28;19933;-75
2022/03/22 07:26:50;;;;;;;;;;;;;;;4.31;89.10;100038.66;10392704;28;19936;-76
2022/03/22 07:31:51;;;;;;;;;;;;;;;4.53;89.20;100034.25;10379102;28;19925;-76
2022/03/22 07:36:52;;;;;;;;;;;;;;;4.53;76.86;100039.59;10362500;28;20309;-76
2022/03/22 07:41:53;;;;;;;;;;;;;;;5.00;66.38;100036.63;10364975;28;19937;-77
2022/03/22 07:46:54;;;;;;;;;;;;;;;5.47;54.26;100036.22;10387655;28;19929;-77
2022/03/22 07:57:14;;;;;;;;;;;;;;;5.76;52.25;100035.03;10403503;28;19936;-78
2022/03/22 08:02:14;;;;;;;;;;;;;;;5.85;53.37;100035.38;10362362;28;20403;-76
2022/03/22 08:07:15;;;;;;;;;;;;;;;6.07;47.30;100036.22;10400592;28;19936;-78
2022/03/22 08:12:15;;;;;;;;;;;;;;;6.27;49.96;100032.94;10419812;28;19929;-76
2022/03/22 08:17:15;;;;;;;;;;;;;;;6.20;52.75;100035.00;10427042;28;19996;-77
2022/03/22 08:22:16;;;;;;;;;;;;;;;6.37;47.65;100030.38;10426112;28;19933;-77
2022/03/22 08:27:18;;;;;;;;;;;;;;;6.55;48.40;100027.34;10420858;28;19925;-76
2022/03/22 08:32:18;;;;;;;;;;;;;;;6.71;44.59;100017.63;10385511;28;19971;-76
2022/03/22 08:37:19;;;;;;;;;;;;;;;6.99;46.02;100013.03;10422504;28;20475;-77
2022/03/22 08:42:19;;;;;;;;;;;;;;;7.41;46.97;100010.38;10396472;28;19979;-77
2022/03/22 08:47:20;;;;;;;;;;;;;;;7.50;42.97;100010.66;10381289;28;19936;-77
2022/03/22 08:52:21;;;;;;;;;;;;;;;7.73;43.45;100007.56;10402408;28;19936;-76
2022/03/22 08:57:22;;;;;;;;;;;;;;;8.19;42.91;100005.81;10416996;28;19925;-77
2022/03/22 09:02:23;;;;;;;;;;;;;;;8.18;40.72;100006.09;10430711;28;19977;-79
2022/03/22 09:07:25;;;;;;;;;;;;;;;8.54;42.87;100001.63;10420776;28;20262;-79
2022/03/22 09:12:26;;;;;;;;;;;;;;;8.68;40.18;99994.66;10430400;28;19984;-78
2022/03/22 09:17:26;;;;;;;;;;;;;;;8.90;40.03;99990.91;10437936;28;19929;-77
2022/03/22 09:22:26;;;;;;;;;;;;;;;9.46;40.90;99988.09;10381411;28;19944;-78
2022/03/22 09:27:27;;;;;;;;;;;;;;;9.82;38.68;99986.88;10364816;28;20020;-77
2022/03/22 09:32:28;;;;;;;;;;;;;;;10.03;36.06;99978.72;10393441;28;19933;-79
2022/03/22 09:37:28;;;;;;;;;;;;;;;10.33;36.60;99986.59;10374355;28;19929;-78
2022/03/22 09:42:30;;;;;;;;;;;;;;;10.50;37.55;99978.16;10380312;28;20331;-78
2022/03/22 09:47:31;;;;;;;;;;;;;;;10.68;34.26;99974.00;10381549;28;19940;-79
2022/03/22 09:52:32;;;;;;;;;;;;;;;10.90;33.59;99968.97;10369806;28;19933;-78
2022/03/22 09:57:35;;;;;;;;;;;;;;;11.22;39.11;99954.13;10374564;28;19983;-78
2022/03/22 10:02:36;;;;;;;;;;;;;;;11.23;33.65;99956.53;10396239;28;19929;-78
2022/03/22 10:07:37;;;;;;;;;;;;;;;11.43;32.25;99955.53;10366158;28;19991;-79
2022/03/22 10:12:42;;;;;;;;;;;;;;;11.45;33.19;99950.66;10412132;28;20251;-77
2022/03/22 10:17:43;;;;;;;;;;;;;;;11.77;31.03;99941.91;10394849;28;19929;-79
2022/03/22 10:22:45;;;;;;;;;;;;;;;12.07;31.90;99942.56;10385940;28;19933;-78
2022/03/22 10:27:45;;;;;;;;;;;;;;;12.50;30.83;99930.59;10389343;28;19933;-78
2022/03/22 10:32:51;;;;;;;;;;;;;;;12.78;29.84;99927.97;10403524;28;20739;-79
2022/03/22 10:37:53;;;;;;;;;;;;;;;13.39;30.83;99926.84;10406470;28;19941;-80
2022/03/22 10:42:58;;;;;;;;;;;;;;;13.82;29.67;99918.41;10383847;28;19959;-78
2022/03/22 10:48:03;;;;;;;;;;;;;;;13.35;28.51;99918.56;10431688;28;19937;-79
2022/03/22 10:53:08;;;;;;;;;;;;;;;14.09;29.05;99915.59;10389445;28;20046;-80
2022/03/22 10:58:11;;;;;;;;;;;;;;;14.42;27.09;99918.06;10386340;28;20036;-79
2022/03/22 11:03:12;;;;;;;;;;;;;;;14.77;25.47;99900.16;10374602;28;19940;-78
2022/03/22 11:08:19;;;;;;;;;;;;;;;15.21;26.78;99895.72;10402588;28;19933;-79
2022/03/22 11:13:19;;;;;;;;;;;;;;;15.11;25.08;99891.41;10381770;28;19936;-79
2022/03/22 11:18:20;;;;;;;;;;;;;;;15.03;24.89;99895.66;10413126;28;19929;-80
2022/03/22 11:23:23;;;;;;;;;;;;;;;15.39;26.32;99883.06;10416414;28;19933;-79
2022/03/22 11:28:25;;;;;;;;;;;;;;;15.44;26.78;99880.97;10409363;28;20502;-78
2022/03/22 11:38:52;;;;;;;;;;;;;;;15.82;26.45;99864.19;10448062;28;19921;-78
2022/03/22 11:44:00;;;;;;;;;;;;;;;15.76;26.25;99860.84;10378808;28;19952;-79
2022/03/22 11:49:11;;;;;;;;;;;;;;;15.86;25.27;99859.72;10391691;28;19983;-78
2022/03/22 11:54:12;;;;;;;;;;;;;;;16.06;23.94;99853.66;10378594;28;19944;-80
2022/03/22 11:59:16;;;;;;;;;;;;;;;16.24;23.27;99850.91;10401705;28;19936;-80
2022/03/22 12:04:18;;;;;;;;;;;;;;;16.47;22.22;99841.47;10388051;28;20379;-80
2022/03/22 12:09:24;;;;;;;;;;;;;;;16.26;22.07;99838.63;10405351;28;19925;-80
2022/03/22 12:14:26;;;;;;;;;;;;;;;17.00;22.58;99829.28;10355617;28;20047;-79
2022/03/22 12:19:28;;;;;;;;;;;;;;;17.70;23.61;99838.59;10375062;28;20010;-78
2022/03/22 12:24:33;;;;;;;;;;;;;;;17.63;22.06;99827.44;10415141;28;19935;-81
2022/03/22 12:29:42;;;;;;;;;;;;;;;17.48;20.48;99819.91;10430034;28;19933;-78
2022/03/22 12:34:44;;;;;;;;;;;;;;;17.41;23.40;99817.72;10387510;28;19933;-78
2022/03/22 12:39:45;;;;;;;;;;;;;;;17.09;22.17;99796.69;10379315;28;19933;-76
2022/03/22 12:44:47;;;;;;;;;;;;;;;17.72;20.53;99800.25;10405270;28;19972;-77
2022/03/22 12:49:48;;;;;;;;;;;;;;;18.14;23.37;99806.41;10396523;28;20471;-76
2022/03/22 12:54:48;;;;;;;;;;;;;;;18.28;18.79;99798.72;10397014;28;19925;-77
2022/03/22 12:59:49;;;;;;;;;;;;;;;17.86;17.32;99785.25;10399082;28;19929;-79
2022/03/22 13:04:53;;;;;;;;;;;;;;;18.61;19.42;99785.06;10369291;28;20415;-77
2022/03/22 13:15:15;;;;;;;;;;;;;;;18.56;18.41;99784.50;10399593;28;19926;-80
2022/03/22 13:20:24;;;;;;;;;;;;;;;20.16;16.66;99773.69;10412015;28;19940;-77
2022/03/22 13:25:30;;;;;;;;;;;;;;;19.99;15.72;99767.78;10412519;28;19925;-80
2022/03/22 13:30:31;;;;;;;;;;;;;;;20.99;16.21;99758.19;10417853;28;20296;-79
2022/03/22 13:35:33;;;;;;;;;;;;;;;20.65;18.57;99756.22;10406842;28;19929;-80
2022/03/22 13:40:38;;;;;;;;;;;;;;;20.00;17.17;99747.56;10404782;28;19959;-79
2022/03/22 13:45:46;;;;;;;;;;;;;;;18.70;16.68;99744.19;10424824;28;20036;-79
2022/03/22 13:50:50;;;;;;;;;;;;;;;19.35;16.87;99742.25;10432115;28;19956;-76
2022/03/22 13:56:07;;;;;;;;;;;;;;;18.82;15.69;99738.72;10407297;28;19964;-78
2022/03/22 14:01:10;;;;;;;;;;;;;;;19.08;17.85;99734.84;10412197;28;19932;-78
2022/03/22 14:06:12;;;;;;;;;;;;;;;19.11;16.14;99731.41;10449550;28;20360;-78
2022/03/22 14:11:14;;;;;;;;;;;;;;;18.62;19.67;99732.25;10439118;28;19956;-78
2022/03/22 14:16:15;;;;;;;;;;;;;;;18.44;17.70;99726.25;10388471;28;19940;-78
2022/03/22 14:21:15;;;;;;;;;;;;;;;18.49;18.97;99725.25;10385477;28;20060;-81
2022/03/22 14:26:16;;;;;;;;;;;;;;;18.30;18.25;99722.31;10390299;28;19956;-77
2022/03/22 14:31:16;;;;;;;;;;;;;;;17.77;17.65;99726.72;10399785;28;19997;-78
2022/03/22 14:36:16;;;;;;;;;;;;;;;18.16;17.80;99717.97;10422621;28;19933;-78
2022/03/22 14:41:27;;;;;;;;;;;;;;;17.76;17.60;99717.78;10426146;28;20015;-77
2022/03/22 14:46:29;;;;;;;;;;;;;;;17.76;16.95;99717.78;10422422;28;19929;-80
2022/03/22 15:02:13;;;;;;;;;;;;;;;16.08;17.68;99691.59;10400760;28;19933;-79
2022/03/22 15:07:21;;;;;;;;;;;;;;;15.77;21.51;99689.16;10396613;28;20196;-78
2022/03/22 15:12:22;;;;;;;;;;;;;;;15.87;22.15;99694.22;10398913;28;19933;-79
2022/03/22 15:17:23;;;;;;;;;;;;;;;15.57;20.22;99682.50;10400403;28;20214;-80
2022/03/22 15:22:24;;;;;;;;;;;;;;;15.40;20.81;99679.81;10372059;28;19948;-79
2022/03/22 15:27:24;;;;;;;;;;;;;;;15.50;21.88;99679.47;10414777;28;19932;-79
2022/03/22 15:32:25;;;;;;;;;;;;;;;15.19;20.94;99668.06;10419008;28;19925;-78
2022/03/22 15:37:29;;;;;;;;;;;;;;;15.19;23.17;99666.16;10387119;28;20376;-79
2022/03/22 15:42:29;;;;;;;;;;;;;;;15.08;20.81;99671.06;10406109;28;19933;-77
2022/03/22 15:47:29;;;;;;;;;;;;;;;14.99;21.41;99667.56;10415507;28;20292;-78
2022/03/22 15:52:31;;;;;;;;;;;;;;;14.96;21.47;99667.41;10378723;28;19933;-78
2022/03/22 15:57:35;;;;;;;;;;;;;;;14.85;22.08;99661.53;10345329;28;21236;-79
2022/03/22 16:02:40;;;;;;;;;;;;;;;14.82;20.21;99659.47;10363392;28;20403;-78
2022/03/22 16:07:41;;;;;;;;;;;;;;;14.67;20.90;99666.13;10386468;28;19925;-78
2022/03/22 16:12:41;;;;;;;;;;;;;;;14.63;22.68;99662.47;10375779;28;20608;-77
2022/03/22 16:17:43;;;;;;;;;;;;;;;14.45;21.61;99660.84;10405412;28;19955;-76
2022/03/22 16:22:44;;;;;;;;;;;;;;;14.35;21.80;99661.88;10399954;28;19929;-74
2022/03/22 16:27:46;;;;;;;;;;;;;;;14.25;21.41;99659.47;10394233;28;19940;-78
2022/03/22 16:38:06;;;;;;;;;;;;;;;14.10;20.99;99657.22;10438037;28;19928;-77
2022/03/22 16:43:06;;;;;;;;;;;;;;;14.00;21.22;99658.28;10335284;28;19929;-79
2022/03/22 16:48:11;;;;;;;;;;;;;;;13.80;22.42;99656.91;10392297;28;19979;-77
2022/03/22 16:53:16;;;;;;;;;;;;;;;13.65;21.79;99647.31;10394819;28;19928;-83
2022/03/22 16:58:19;;;;;;;;;;;;;;;13.45;23.22;99661.34;10386874;28;19984;-77
2022/03/22 17:03:24;;;;;;;;;;;;;;;13.35;22.15;99664.28;10378691;28;20012;-78
2022/03/22 17:08:24;;;;;;;;;;;;;;;13.09;23.05;99664.06;10393433;28;19935;-77
2022/03/22 17:13:27;;;;;;;;;;;;;;;12.86;23.40;99667.81;10379023;28;19947;-79
2022/03/22 17:18:30;;;;;;;;;;;;;;;12.63;24.06;99662.38;10401988;28;19987;-78
2022/03/22 17:23:32;;;;;;;;;;;;;;;12.34;24.44;99667.28;10393912;28;19983;-78
2022/03/22 17:28:33;;;;;;;;;;;;;;;12.16;24.57;99667.13;10425113;28;20034;-79
2022/03/22 17:33:35;;;;;;;;;;;;;;;11.93;24.95;99666.19;10426232;28;19925;-77
2022/03/22 17:38:40;;;;;;;;;;;;;;;11.75;25.18;99666.22;10428834;28;19929;-77
2022/03/22 17:43:43;;;;;;;;;;;;;;;11.54;25.47;99663.91;10389126;28;19932;-77
2022/03/22 17:48:43;;;;;;;;;;;;;;;11.39;26.03;99666.84;10421044;28;20332;-78
2022/03/22 17:53:44;;;;;;;;;;;;;;;11.07;27.16;99667.63;10399736;28;19929;-80
2022/03/22 17:58:45;;;;;;;;;;;;;;;10.79;27.15;99669.38;10385223;28;20652;-78
2022/03/22 18:03:45;;;;;;;;;;;;;;;10.71;26.49;99668.13;10385355;28;19925;-78
2022/03/22 18:08:46;;;;;;;;;;;;;;;10.61;26.67;99678.19;10402010;28;20023;-79
2022/03/22 18:13:48;;;;;;;;;;;;;;;10.39;27.42;99674.16;10407098;28;19941;-78
2022/03/22 18:18:54;;;;;;;;;;;;;;;10.17;27.74;99682.72;10387639;28;20734;-77
2022/03/22 18:23:54;;;;;;;;;;;;;;;9.94;28.04;99689.66;10408242;28;19936;-78
2022/03/22 18:28:54;;;;;;;;;;;;;;;9.74;30.13;99697.09;10387113;28;19940;-77
2022/03/22 18:33:55;;;;;;;;;;;;;;;9.65;29.13;99700.38;10403992;28;19987;-77
2022/03/22 18:38:56;;;;;;;;;;;;;;;9.51;29.53;99701.28;10415958;28;19925;-77
2022/03/22 18:43:57;;;;;;;;;;;;;;;9.28;30.82;99703.63;10400917;28;20407;-79
2022/03/22 18:48:57;;;;;;;;;;;;;;;9.02;31.45;99710.22;10395556;28;19936;-77
2022/03/22 18:53:57;;;;;;;;;;;;;;;8.81;32.19;99706.88;10409679;28;19983;-78
2022/03/22 18:59:00;;;;;;;;;;;;;;;8.50;34.50;99714.22;10414150;28;19997;-76
2022/03/22 19:04:02;;;;;;;;;;;;;;;8.30;33.73;99717.75;10423985;28;19913;-78
2022/03/22 19:09:06;;;;;;;;;;;;;;;8.14;36.17;99727.69;10445850;28;20054;-79
2022/03/22 19:14:06;;;;;;;;;;;;;;;7.93;38.92;99729.59;10405058;28;19925;-79
2022/03/22 19:19:07;;;;;;;;;;;;;;;7.70;39.99;99735.50;10408587;28;19945;-79
2022/03/22 19:24:07;;;;;;;;;;;;;;;7.43;42.47;99729.63;10404513;28;20260;-78
2022/03/22 19:29:09;;;;;;;;;;;;;;;7.15;44.50;99741.59;10388308;28;19929;-77
2022/03/22 19:34:09;;;;;;;;;;;;;;;6.91;49.53;99735.94;10366025;28;19926;-79
2022/03/22 19:39:10;;;;;;;;;;;;;;;6.57;53.04;99739.00;10385455;28;20380;-77
2022/03/22 19:44:10;;;;;;;;;;;;;;;6.25;66.44;99733.78;10368716;28;20336;-79
2022/03/22 19:49:17;;;;;;;;;;;;;;;6.08;60.01;99739.28;10402704;28;20048;-77
2022/03/22 19:54:23;;;;;;;;;;;;;;;5.95;58.92;99737.09;10369169;28;20297;-78
2022/03/22 19:59:24;;;;;;;;;;;;;;;5.78;66.72;99739.84;10346769;28;20025;-80
2022/03/22 20:04:31;;;;;;;;;;;;;;;5.53;69.07;99739.66;10389577;28;19925;-79
2022/03/22 20:09:34;;;;;;;;;;;;;;;5.39;69.58;99734.75;10352402;28;19952;-79
2022/03/22 20:14:34;;;;;;;;;;;;;;;5.24;67.58;99734.59;10365079;28;19924;-81
2022/03/22 20:19:39;;;;;;;;;;;;;;;5.03;65.26;99741.59;10373691;28;20039;-80
2022/03/22 20:24:39;;;;;;;;;;;;;;;4.95;66.43;99739.38;10393191;28;19925;-79
2022/03/22 20:29:44;;;;;;;;;;;;;;;4.82;69.93;99745.88;10396877;28;19933;-79
2022/03/22 20:34:51;;;;;;;;;;;;;;;4.65;76.20;99747.78;10412259;28;19941;-77
2022/03/22 20:39:52;;;;;;;;;;;;;;;4.51;82.77;99744.72;10399570;28;19921;-78
2022/03/22 20:44:55;;;;;;;;;;;;;;;4.38;86.64;99747.72;10418239;28;19956;-82
2022/03/22 20:49:56;;;;;;;;;;;;;;;4.23;78.64;99753.66;10424679;28;19974;-78
2022/03/22 20:55:00;;;;;;;;;;;;;;;4.15;85.02;99751.41;10396820;28;19921;-77
2022/03/22 21:00:01;;;;;;;;;;;;;;;3.97;86.58;99752.47;10402576;28;19997;-77
2022/03/22 21:05:02;;;;;;;;;;;;;;;3.84;88.10;99749.31;10403284;28;19989;-77
2022/03/22 21:10:03;;;;;;;;;;;;;;;3.75;90.31;99745.47;10401946;28;19940;-78
2022/03/22 21:15:04;;;;;;;;;;;;;;;3.63;92.95;99749.00;10410746;28;19929;-78
2022/03/22 21:20:07;;;;;;;;;;;;;;;3.46;98.33;99750.03;10423679;28;19933;-77
2022/03/22 21:25:10;;;;;;;;;;;;;;;3.31;96.63;99751.41;10430783;28;19956;-75
2022/03/22 21:30:11;;;;;;;;;;;;;;;3.23;95.82;99753.66;10417678;28;19926;-75
2022/03/22 21:35:12;;;;;;;;;;;;;;;3.14;97.00;99753.22;10412025;28;19933;-76
2022/03/22 21:40:13;;;;;;;;;;;;;;;3.01;98.06;99754.28;10430906;28;19929;-76
2022/03/22 21:45:15;;;;;;;;;;;;;;;2.94;95.52;99758.16;10428065;28;19924;-76
2022/03/22 21:50:15;;;;;;;;;;;;;;;2.94;100.00;99756.31;10415471;28;20003;-77
2022/03/22 21:55:16;;;;;;;;;;;;;;;2.75;97.91;99755.69;10427793;28;19920;-77
2022/03/22 22:00:17;;;;;;;;;;;;;;;2.57;98.41;99747.91;10431936;28;20337;-75
2022/03/22 22:05:18;;;;;;;;;;;;;;;2.52;96.05;99753.06;10414763;28;19929;-76
2022/03/22 22:10:18;;;;;;;;;;;;;;;2.52;99.07;99745.94;10427011;28;19936;-76
2022/03/22 22:15:18;;;;;;;;;;;;;;;2.40;98.64;99749.66;10431847;28;20040;-76
2022/03/22 22:20:19;;;;;;;;;;;;;;;2.34;99.71;99748.72;10431937;28;19983;-78
2022/03/22 22:25:20;;;;;;;;;;;;;;;2.17;100.00;99738.03;10427879;28;19929;-76
2022/03/22 22:30:20;;;;;;;;;;;;;;;2.08;100.00;99741.25;10426539;28;20032;-77
2022/03/22 22:35:21;;;;;;;;;;;;;;;1.98;100.00;99739.19;10404833;28;19980;-77
2022/03/22 22:40:22;;;;;;;;;;;;;;;1.85;100.00;99742.88;10385803;28;20094;-76
2022/03/22 22:45:26;;;;;;;;;;;;;;;1.78;100.00;99742.19;10417154;28;19932;-76
2022/03/22 22:50:27;;;;;;;;;;;;;;;1.71;100.00;99738.84;10415941;28;20036;-76
2022/03/22 22:55:28;;;;;;;;;;;;;;;1.77;100.00;99740.59;10414156;28;20424;-77
2022/03/22 23:01:02;;;;;;;;;;;;;;;1.74;100.00;99733.09;10401360;28;20055;-78
2022/03/22 23:06:03;;;;;;;;;;;;;;;1.72;100.00;99737.81;10398304;28;20281;-77
2022/03/22 23:11:05;;;;;;;;;;;;;;;1.51;100.00;99731.22;10395114;28;19933;-77
2022/03/22 23:16:07;;;;;;;;;;;;;;;1.40;100.00;99738.13;10384496;28;20447;-75
2022/03/22 23:21:07;;;;;;;;;;;;;;;1.31;100.00;99734.19;10389963;28;20349;-77
2022/03/22 23:26:09;;;;;;;;;;;;;;;1.21;100.00;99733.94;10377042;28;19939;-76
2022/03/22 23:31:11;;;;;;;;;;;;;;;1.10;100.00;99735.50;10395155;28;20295;-77
2022/03/22 23:36:12;;;;;;;;;;;;;;;0.96;100.00;99738.56;10359896;28;19991;-77
2022/03/22 23:41:12;;;;;;;;;;;;;;;0.83;100.00;99732.41;10389139;28;19928;-77
2022/03/22 23:46:12;;;;;;;;;;;;;;;0.82;100.00;99728.16;10390224;28;19929;-76
2022/03/22 23:51:13;;;;;;;;;;;;;;;0.87;100.00;99730.13;10387054;28;19930;-76
2022/03/22 23:56:15;;;;;;;;;;;;;;;0.66;100.00;99723.50;10388866;28;20416;-77
